Due to severe server failure at the provider, not all demo sites are operational. Will take some days to rebuilt everything.

Demonstration site - Click on the  for more information

Active alerts


No alerts


My webcam more information My webcam


Thunder radar more information blitzortung!


Rain radar more information rain snow radar


Visit our other weather sites:

Template documentation
and downloads

And another site


You find our weather info also at:

UK Metoffice

Weather Underground

AWEKAS

WeatherlinkIP

Citizen Weather Observer Program (CWOP)

HAMweather, WeatherForYou, PWS Weather



Nearby METAR Reports

   
KAVP - Albrightsville, PA
Updated: Jul 10 2020 11:54 am
Overcast  
Overcast  
   Wind: ENE 5.8 mph
Wind: ENE 5.8 mph
Temperature: 78.8°F
Dew Point: 68°F
Humidity: 70%
Barometer: 29.95 inHg
Clouds: Overcast
Visibility: 10 mi
Cloud details: Mostly Cloudy 2500 ft,
Overcast 3300 ft
KAVP 101554Z 07005KT 10SM BKN025 OVC033 26/20 A2995 RMK AO2 SLP131 T02560200
KIWA - Apache Junction, AZ
Updated: Jul 10 2020 11:50 am
Partly Cloudy  
Partly Cloudy  
   Wind: North 6.9 mph
Wind: North 6.9 mph
Temperature: 95°F
Dew Point: 51.8°F
Humidity: 23%
Barometer: 30.02 inHg
Clouds: Partly Cloudy
Visibility: 10 mi
Cloud details: Few Clouds 15000 ft,
Partly Cloudy 25000 ft
KIWA 101550Z 36006KT 10SM FEW150 SCT250 35/11 A3002
KPKB - Blue Rock, OH
Updated: Jul 10 2020 11:53 am
Few Clouds  
Few Clouds  
   Wind: varies 4.6 mph
Wind: varies 4.6 mph
Temperature: 91.4°F
Heat Index: 98.6°F
Dew Point: 71.6°F
Humidity: 52%
Barometer: 29.88 inHg
Clouds: Few Clouds
Visibility: 10 mi
Cloud details: Few Clouds 3800 ft
KPKB 101553Z VRB04KT 10SM FEW038 33/22 A2988 RMK AO2 SLP108 T03280217
KHVN - Branford, CT
Updated: Jul 10 2020 11:53 am
Mostly Cloudy  
Mostly Cloudy  
   Wind: East 11.5 mph<br />Gust to 11.5 mph
Wind: East 11.5 mph
Gust to 11.5 mph
Temperature: 78.8°F
Dew Point: 73.4°F
Humidity: 84%
Barometer: 29.95 inHg
Clouds: Mostly Cloudy
Visibility: 10 mi
Cloud details: Partly Cloudy 800 ft,
Mostly Cloudy 1500 ft
KHVN 101553Z 09010G20KT 10SM SCT008 BKN015 26/23 A2995 RMK AO2 SLP140 T02560233
KPHX - Carefree, AZ
Updated: Jul 10 2020 11:51 am
Mostly Cloudy  
Mostly Cloudy  
   Wind: WNW 6.9 mph
Wind: WNW 6.9 mph
Temperature: 96.8°F
Dew Point: 48.2°F
Humidity: 19%
Barometer: 29.96 inHg
Clouds: Mostly Cloudy
Visibility: 10 mi
Cloud details: Few Clouds 16000 ft,
Mostly Cloudy 25000 ft
KPHX 101551Z 30006KT 10SM FEW160 BKN250 36/09 A2996 RMK AO2 SLP123 T03610089
 

Script developed by  Saratoga-weather.org Adapted for the template by  Weerstation Leuven

Equipment we use:

Weather-station
Davis VP2

Weather-program
WSWIN

Weather-server
My Computer

Provider
Robohost

Davis VP2

WSWIN

My Computer

Robohost

This is an optional block. Switch it on/off in your settings-file: $SITE['bannerTop'] = false; or $SITE['bannerBottom'] = false;

You can display ads, any other important text or photo’s using text / html or PHP code.

You can place one or more at the top and or bottom and it can all be different for content / size .